sensor_id;sensor_type;location;lat;lon;timestamp;P1;durP1;ratioP1;P2;durP2;ratioP2
6113;SDS011;3087;48.392;10.836;2022-10-13T00:00:39;69.18;;;16.83;;
6113;SDS011;3087;48.392;10.836;2022-10-13T00:03:06;74.43;;;17.40;;
6113;SDS011;3087;48.392;10.836;2022-10-13T00:05:32;71.90;;;15.85;;
6113;SDS011;3087;48.392;10.836;2022-10-13T00:07:58;43.97;;;14.48;;
6113;SDS011;3087;48.392;10.836;2022-10-13T00:10:25;53.88;;;14.88;;
6113;SDS011;3087;48.392;10.836;2022-10-13T00:12:51;40.50;;;14.57;;
6113;SDS011;3087;48.392;10.836;2022-10-13T00:15:17;34.25;;;12.98;;
6113;SDS011;3087;48.392;10.836;2022-10-13T00:17:43;53.75;;;16.65;;
6113;SDS011;3087;48.392;10.836;2022-10-13T00:20:09;23.98;;;17.13;;
6113;SDS011;3087;48.392;10.836;2022-10-13T00:22:35;16.67;;;14.18;;
6113;SDS011;3087;48.392;10.836;2022-10-13T00:25:02;46.28;;;15.63;;
6113;SDS011;3087;48.392;10.836;2022-10-13T00:27:28;59.55;;;16.25;;
6113;SDS011;3087;48.392;10.836;2022-10-13T00:29:53;55.72;;;17.38;;
6113;SDS011;3087;48.392;10.836;2022-10-13T00:32:19;70.25;;;18.60;;
6113;SDS011;3087;48.392;10.836;2022-10-13T00:34:45;73.88;;;17.67;;
6113;SDS011;3087;48.392;10.836;2022-10-13T00:37:10;41.85;;;16.65;;
6113;SDS011;3087;48.392;10.836;2022-10-13T00:39:36;43.97;;;17.15;;
6113;SDS011;3087;48.392;10.836;2022-10-13T00:42:02;38.63;;;15.45;;
6113;SDS011;3087;48.392;10.836;2022-10-13T00:47:34;57.17;;;16.05;;
6113;SDS011;3087;48.392;10.836;2022-10-13T00:50:06;43.50;;;15.20;;
6113;SDS011;3087;48.392;10.836;2022-10-13T00:52:38;78.22;;;17.13;;
6113;SDS011;3087;48.392;10.836;2022-10-13T00:55:05;47.38;;;14.63;;
6113;SDS011;3087;48.392;10.836;2022-10-13T00:57:33;40.08;;;14.32;;
6113;SDS011;3087;48.392;10.836;2022-10-13T01:00:00;29.15;;;13.68;;
6113;SDS011;3087;48.392;10.836;2022-10-13T01:02:28;93.63;;;17.58;;
6113;SDS011;3087;48.392;10.836;2022-10-13T01:04:58;46.83;;;15.63;;
6113;SDS011;3087;48.392;10.836;2022-10-13T01:07:26;70.95;;;16.88;;
6113;SDS011;3087;48.392;10.836;2022-10-13T01:09:52;18.45;;;16.05;;
6113;SDS011;3087;48.392;10.836;2022-10-13T01:17:40;61.33;;;15.10;;
6113;SDS011;3087;48.392;10.836;2022-10-13T01:26:08;63.78;;;15.48;;
6113;SDS011;3087;48.392;10.836;2022-10-13T01:31:45;62.70;;;15.32;;
6113;SDS011;3087;48.392;10.836;2022-10-13T01:34:21;23.48;;;14.20;;
6113;SDS011;3087;48.392;10.836;2022-10-13T01:37:01;43.22;;;14.52;;
6113;SDS011;3087;48.392;10.836;2022-10-13T01:39:39;17.73;;;14.35;;
6113;SDS011;3087;48.392;10.836;2022-10-13T01:42:24;32.92;;;13.98;;
6113;SDS011;3087;48.392;10.836;2022-10-13T01:45:12;14.43;;;12.93;;
6113;SDS011;3087;48.392;10.836;2022-10-13T01:47:42;16.67;;;14.07;;
6113;SDS011;3087;48.392;10.836;2022-10-13T01:50:09;17.10;;;15.20;;
6113;SDS011;3087;48.392;10.836;2022-10-13T01:52:36;18.40;;;13.95;;
6113;SDS011;3087;48.392;10.836;2022-10-13T01:55:06;33.30;;;13.38;;
6113;SDS011;3087;48.392;10.836;2022-10-13T01:57:38;43.78;;;15.55;;
6113;SDS011;3087;48.392;10.836;2022-10-13T02:00:15;16.73;;;13.82;;
6113;SDS011;3087;48.392;10.836;2022-10-13T02:13:33;20.02;;;14.75;;
6113;SDS011;3087;48.392;10.836;2022-10-13T02:16:02;18.75;;;15.23;;
6113;SDS011;3087;48.392;10.836;2022-10-13T02:18:29;19.27;;;15.55;;
6113;SDS011;3087;48.392;10.836;2022-10-13T02:20:58;17.30;;;14.82;;
6113;SDS011;3087;48.392;10.836;2022-10-13T02:23:25;16.30;;;14.38;;
6113;SDS011;3087;48.392;10.836;2022-10-13T02:25:52;16.20;;;14.50;;
6113;SDS011;3087;48.392;10.836;2022-10-13T02:28:19;16.05;;;14.30;;
6113;SDS011;3087;48.392;10.836;2022-10-13T02:30:46;16.48;;;13.55;;
6113;SDS011;3087;48.392;10.836;2022-10-13T02:33:12;14.13;;;12.63;;
6113;SDS011;3087;48.392;10.836;2022-10-13T02:35:38;13.80;;;12.20;;
6113;SDS011;3087;48.392;10.836;2022-10-13T02:38:04;13.63;;;12.23;;
6113;SDS011;3087;48.392;10.836;2022-10-13T02:40:29;14.27;;;12.32;;
6113;SDS011;3087;48.392;10.836;2022-10-13T02:42:55;16.55;;;13.32;;
6113;SDS011;3087;48.392;10.836;2022-10-13T02:45:21;16.17;;;12.77;;
6113;SDS011;3087;48.392;10.836;2022-10-13T02:47:47;14.02;;;12.63;;
6113;SDS011;3087;48.392;10.836;2022-10-13T02:50:13;13.30;;;12.00;;
6113;SDS011;3087;48.392;10.836;2022-10-13T02:52:39;16.52;;;11.98;;
6113;SDS011;3087;48.392;10.836;2022-10-13T02:55:04;13.38;;;12.00;;
6113;SDS011;3087;48.392;10.836;2022-10-13T02:57:31;19.70;;;16.98;;
6113;SDS011;3087;48.392;10.836;2022-10-13T02:59:56;14.43;;;12.68;;
6113;SDS011;3087;48.392;10.836;2022-10-13T03:02:22;13.90;;;12.18;;
6113;SDS011;3087;48.392;10.836;2022-10-13T03:04:48;12.50;;;10.75;;
6113;SDS011;3087;48.392;10.836;2022-10-13T03:07:14;15.27;;;11.07;;
6113;SDS011;3087;48.392;10.836;2022-10-13T03:09:39;13.50;;;11.50;;
6113;SDS011;3087;48.392;10.836;2022-10-13T03:12:05;12.07;;;10.88;;
6113;SDS011;3087;48.392;10.836;2022-10-13T03:14:31;12.85;;;11.45;;
6113;SDS011;3087;48.392;10.836;2022-10-13T03:16:57;12.35;;;11.05;;
6113;SDS011;3087;48.392;10.836;2022-10-13T03:19:22;14.57;;;13.05;;
6113;SDS011;3087;48.392;10.836;2022-10-13T03:21:48;14.43;;;12.82;;
6113;SDS011;3087;48.392;10.836;2022-10-13T03:24:14;13.18;;;11.88;;
6113;SDS011;3087;48.392;10.836;2022-10-13T03:26:39;14.77;;;11.82;;
6113;SDS011;3087;48.392;10.836;2022-10-13T03:29:05;12.02;;;10.60;;
6113;SDS011;3087;48.392;10.836;2022-10-13T03:31:31;12.23;;;11.00;;
6113;SDS011;3087;48.392;10.836;2022-10-13T03:33:56;13.30;;;11.50;;
6113;SDS011;3087;48.392;10.836;2022-10-13T03:36:22;12.65;;;11.40;;
6113;SDS011;3087;48.392;10.836;2022-10-13T03:38:47;14.88;;;12.32;;
6113;SDS011;3087;48.392;10.836;2022-10-13T03:41:14;14.50;;;13.00;;
6113;SDS011;3087;48.392;10.836;2022-10-13T03:43:41;14.75;;;12.38;;
6113;SDS011;3087;48.392;10.836;2022-10-13T03:46:09;14.30;;;12.80;;
6113;SDS011;3087;48.392;10.836;2022-10-13T03:48:37;16.50;;;13.57;;
6113;SDS011;3087;48.392;10.836;2022-10-13T03:51:06;16.02;;;13.82;;
6113;SDS011;3087;48.392;10.836;2022-10-13T03:53:33;14.65;;;12.48;;
6113;SDS011;3087;48.392;10.836;2022-10-13T03:55:59;13.77;;;12.35;;
6113;SDS011;3087;48.392;10.836;2022-10-13T03:58:25;20.27;;;17.95;;
6113;SDS011;3087;48.392;10.836;2022-10-13T04:00:54;16.17;;;12.70;;
6113;SDS011;3087;48.392;10.836;2022-10-13T04:03:21;13.05;;;11.65;;
6113;SDS011;3087;48.392;10.836;2022-10-13T04:05:48;12.68;;;11.38;;
6113;SDS011;3087;48.392;10.836;2022-10-13T04:08:14;12.50;;;10.98;;
6113;SDS011;3087;48.392;10.836;2022-10-13T04:10:40;13.70;;;11.02;;
6113;SDS011;3087;48.392;10.836;2022-10-13T04:13:06;11.80;;;10.50;;
6113;SDS011;3087;48.392;10.836;2022-10-13T04:15:38;14.63;;;12.40;;
6113;SDS011;3087;48.392;10.836;2022-10-13T04:18:05;12.77;;;11.45;;
6113;SDS011;3087;48.392;10.836;2022-10-13T04:20:34;11.73;;;10.55;;
6113;SDS011;3087;48.392;10.836;2022-10-13T04:23:01;12.00;;;10.80;;
6113;SDS011;3087;48.392;10.836;2022-10-13T04:25:27;13.68;;;12.02;;
6113;SDS011;3087;48.392;10.836;2022-10-13T04:27:52;12.65;;;10.65;;
6113;SDS011;3087;48.392;10.836;2022-10-13T04:30:18;12.48;;;11.27;;
6113;SDS011;3087;48.392;10.836;2022-10-13T04:32:44;12.35;;;11.13;;
6113;SDS011;3087;48.392;10.836;2022-10-13T04:35:09;12.30;;;11.10;;
6113;SDS011;3087;48.392;10.836;2022-10-13T04:37:35;11.05;;;9.93;;
6113;SDS011;3087;48.392;10.836;2022-10-13T04:40:00;11.60;;;10.40;;
6113;SDS011;3087;48.392;10.836;2022-10-13T04:42:26;14.07;;;11.43;;
6113;SDS011;3087;48.392;10.836;2022-10-13T04:44:52;12.27;;;11.07;;
6113;SDS011;3087;48.392;10.836;2022-10-13T04:47:17;11.07;;;9.98;;
6113;SDS011;3087;48.392;10.836;2022-10-13T04:49:43;11.32;;;10.15;;
6113;SDS011;3087;48.392;10.836;2022-10-13T04:52:08;10.93;;;9.73;;
6113;SDS011;3087;48.392;10.836;2022-10-13T04:54:34;14.25;;;11.30;;
6113;SDS011;3087;48.392;10.836;2022-10-13T04:57:00;12.77;;;11.50;;
6113;SDS011;3087;48.392;10.836;2022-10-13T04:59:25;11.60;;;10.02;;
6113;SDS011;3087;48.392;10.836;2022-10-13T05:01:51;14.77;;;10.00;;
6113;SDS011;3087;48.392;10.836;2022-10-13T05:04:16;11.25;;;10.15;;
6113;SDS011;3087;48.392;10.836;2022-10-13T05:06:42;12.23;;;10.93;;
6113;SDS011;3087;48.392;10.836;2022-10-13T05:09:08;11.55;;;10.30;;
6113;SDS011;3087;48.392;10.836;2022-10-13T05:11:39;13.07;;;11.52;;
6113;SDS011;3087;48.392;10.836;2022-10-13T05:14:05;12.35;;;11.00;;
6113;SDS011;3087;48.392;10.836;2022-10-13T05:16:30;14.38;;;10.52;;
6113;SDS011;3087;48.392;10.836;2022-10-13T05:18:56;12.07;;;10.82;;
6113;SDS011;3087;48.392;10.836;2022-10-13T05:21:23;13.82;;;11.50;;
6113;SDS011;3087;48.392;10.836;2022-10-13T05:23:51;11.85;;;10.52;;
6113;SDS011;3087;48.392;10.836;2022-10-13T05:26:21;12.02;;;10.73;;
6113;SDS011;3087;48.392;10.836;2022-10-13T05:28:48;13.73;;;10.55;;
6113;SDS011;3087;48.392;10.836;2022-10-13T05:33:41;13.18;;;10.80;;
6113;SDS011;3087;48.392;10.836;2022-10-13T05:36:08;14.38;;;12.90;;
6113;SDS011;3087;48.392;10.836;2022-10-13T05:38:36;15.45;;;11.25;;
6113;SDS011;3087;48.392;10.836;2022-10-13T05:41:06;16.13;;;11.48;;
6113;SDS011;3087;48.392;10.836;2022-10-13T05:43:33;12.32;;;10.45;;
6113;SDS011;3087;48.392;10.836;2022-10-13T05:46:00;11.00;;;9.63;;
6113;SDS011;3087;48.392;10.836;2022-10-13T05:48:26;12.90;;;10.68;;
6113;SDS011;3087;48.392;10.836;2022-10-13T05:50:53;11.98;;;9.88;;
6113;SDS011;3087;48.392;10.836;2022-10-13T05:53:22;14.00;;;9.60;;
6113;SDS011;3087;48.392;10.836;2022-10-13T05:55:48;14.43;;;10.00;;
6113;SDS011;3087;48.392;10.836;2022-10-13T05:58:15;16.83;;;9.95;;
6113;SDS011;3087;48.392;10.836;2022-10-13T06:00:41;11.30;;;10.10;;
6113;SDS011;3087;48.392;10.836;2022-10-13T06:03:11;14.75;;;10.40;;
6113;SDS011;3087;48.392;10.836;2022-10-13T06:05:43;12.32;;;11.13;;
6113;SDS011;3087;48.392;10.836;2022-10-13T06:08:12;12.73;;;10.32;;
6113;SDS011;3087;48.392;10.836;2022-10-13T06:10:41;17.15;;;11.13;;
6113;SDS011;3087;48.392;10.836;2022-10-13T06:13:08;11.65;;;10.45;;
6113;SDS011;3087;48.392;10.836;2022-10-13T06:15:34;13.93;;;10.73;;
6113;SDS011;3087;48.392;10.836;2022-10-13T06:17:59;13.38;;;10.48;;
6113;SDS011;3087;48.392;10.836;2022-10-13T06:20:25;11.02;;;9.75;;
6113;SDS011;3087;48.392;10.836;2022-10-13T06:22:53;12.32;;;10.70;;
6113;SDS011;3087;48.392;10.836;2022-10-13T06:25:19;17.35;;;10.95;;
6113;SDS011;3087;48.392;10.836;2022-10-13T06:27:45;15.60;;;11.50;;
6113;SDS011;3087;48.392;10.836;2022-10-13T06:30:10;12.65;;;11.02;;
6113;SDS011;3087;48.392;10.836;2022-10-13T06:32:36;12.77;;;10.80;;
6113;SDS011;3087;48.392;10.836;2022-10-13T06:35:02;14.85;;;13.32;;
6113;SDS011;3087;48.392;10.836;2022-10-13T06:37:28;14.98;;;10.18;;
6113;SDS011;3087;48.392;10.836;2022-10-13T06:39:53;14.02;;;11.27;;
6113;SDS011;3087;48.392;10.836;2022-10-13T06:42:19;12.65;;;10.80;;
6113;SDS011;3087;48.392;10.836;2022-10-13T06:44:44;12.77;;;10.65;;
6113;SDS011;3087;48.392;10.836;2022-10-13T06:47:10;13.23;;;11.20;;
6113;SDS011;3087;48.392;10.836;2022-10-13T06:49:36;14.15;;;11.45;;
6113;SDS011;3087;48.392;10.836;2022-10-13T06:52:02;13.93;;;10.63;;
6113;SDS011;3087;48.392;10.836;2022-10-13T06:54:28;15.15;;;11.02;;
6113;SDS011;3087;48.392;10.836;2022-10-13T06:56:54;16.48;;;12.63;;
6113;SDS011;3087;48.392;10.836;2022-10-13T06:59:20;17.55;;;12.05;;
6113;SDS011;3087;48.392;10.836;2022-10-13T07:01:46;14.52;;;12.05;;
6113;SDS011;3087;48.392;10.836;2022-10-13T07:04:12;15.88;;;12.55;;
6113;SDS011;3087;48.392;10.836;2022-10-13T07:06:38;15.77;;;11.88;;
6113;SDS011;3087;48.392;10.836;2022-10-13T07:09:05;12.82;;;11.50;;
6113;SDS011;3087;48.392;10.836;2022-10-13T07:11:32;14.13;;;12.70;;
6113;SDS011;3087;48.392;10.836;2022-10-13T07:13:58;15.82;;;12.60;;
6113;SDS011;3087;48.392;10.836;2022-10-13T07:16:24;15.77;;;12.38;;
6113;SDS011;3087;48.392;10.836;2022-10-13T07:18:50;14.55;;;11.85;;
6113;SDS011;3087;48.392;10.836;2022-10-13T07:21:16;15.05;;;12.77;;
6113;SDS011;3087;48.392;10.836;2022-10-13T07:23:42;13.73;;;11.95;;
6113;SDS011;3087;48.392;10.836;2022-10-13T07:26:09;14.13;;;12.63;;
6113;SDS011;3087;48.392;10.836;2022-10-13T07:28:37;14.93;;;11.63;;
6113;SDS011;3087;48.392;10.836;2022-10-13T07:31:10;16.88;;;13.15;;
6113;SDS011;3087;48.392;10.836;2022-10-13T07:33:38;20.40;;;13.45;;
6113;SDS011;3087;48.392;10.836;2022-10-13T07:36:05;13.02;;;11.65;;
6113;SDS011;3087;48.392;10.836;2022-10-13T07:38:31;15.30;;;11.63;;
6113;SDS011;3087;48.392;10.836;2022-10-13T07:41:01;18.15;;;12.07;;
6113;SDS011;3087;48.392;10.836;2022-10-13T07:43:28;13.23;;;10.70;;
6113;SDS011;3087;48.392;10.836;2022-10-13T07:45:54;15.77;;;12.70;;
6113;SDS011;3087;48.392;10.836;2022-10-13T07:48:22;19.58;;;12.32;;
6113;SDS011;3087;48.392;10.836;2022-10-13T07:50:47;13.25;;;11.80;;
6113;SDS011;3087;48.392;10.836;2022-10-13T07:53:13;16.58;;;11.80;;
6113;SDS011;3087;48.392;10.836;2022-10-13T07:55:38;19.50;;;15.38;;
6113;SDS011;3087;48.392;10.836;2022-10-13T07:58:04;15.38;;;12.95;;
6113;SDS011;3087;48.392;10.836;2022-10-13T08:00:29;15.32;;;11.93;;
6113;SDS011;3087;48.392;10.836;2022-10-13T08:02:55;14.85;;;12.68;;
6113;SDS011;3087;48.392;10.836;2022-10-13T08:05:21;15.95;;;11.85;;
6113;SDS011;3087;48.392;10.836;2022-10-13T08:07:46;19.13;;;13.48;;
6113;SDS011;3087;48.392;10.836;2022-10-13T08:10:12;19.27;;;13.02;;
6113;SDS011;3087;48.392;10.836;2022-10-13T08:12:38;19.90;;;13.50;;
6113;SDS011;3087;48.392;10.836;2022-10-13T08:15:04;17.20;;;13.48;;
6113;SDS011;3087;48.392;10.836;2022-10-13T08:17:30;17.95;;;12.68;;
6113;SDS011;3087;48.392;10.836;2022-10-13T08:19:56;24.50;;;13.88;;
6113;SDS011;3087;48.392;10.836;2022-10-13T08:22:22;18.00;;;14.10;;
6113;SDS011;3087;48.392;10.836;2022-10-13T08:24:48;18.85;;;13.25;;
6113;SDS011;3087;48.392;10.836;2022-10-13T08:27:19;18.10;;;13.73;;
6113;SDS011;3087;48.392;10.836;2022-10-13T08:29:47;16.92;;;14.20;;
6113;SDS011;3087;48.392;10.836;2022-10-13T08:32:13;18.63;;;14.15;;
6113;SDS011;3087;48.392;10.836;2022-10-13T08:34:39;22.83;;;15.60;;
6113;SDS011;3087;48.392;10.836;2022-10-13T08:37:17;18.27;;;13.32;;
6113;SDS011;3087;48.392;10.836;2022-10-13T08:39:43;18.23;;;13.20;;
6113;SDS011;3087;48.392;10.836;2022-10-13T08:42:19;20.48;;;14.80;;
6113;SDS011;3087;48.392;10.836;2022-10-13T08:49:52;19.48;;;14.10;;
6113;SDS011;3087;48.392;10.836;2022-10-13T08:52:22;23.08;;;14.05;;
6113;SDS011;3087;48.392;10.836;2022-10-13T08:54:51;18.88;;;13.57;;
6113;SDS011;3087;48.392;10.836;2022-10-13T08:57:18;17.88;;;12.93;;
6113;SDS011;3087;48.392;10.836;2022-10-13T08:59:45;17.80;;;13.40;;
6113;SDS011;3087;48.392;10.836;2022-10-13T09:02:24;18.80;;;12.82;;
6113;SDS011;3087;48.392;10.836;2022-10-13T09:04:54;17.67;;;12.82;;
6113;SDS011;3087;48.392;10.836;2022-10-13T09:07:29;20.60;;;13.90;;
6113;SDS011;3087;48.392;10.836;2022-10-13T09:09:58;16.25;;;12.10;;
6113;SDS011;3087;48.392;10.836;2022-10-13T09:12:25;16.67;;;11.52;;
6113;SDS011;3087;48.392;10.836;2022-10-13T09:17:29;17.80;;;11.93;;
6113;SDS011;3087;48.392;10.836;2022-10-13T09:20:06;17.05;;;11.93;;
6113;SDS011;3087;48.392;10.836;2022-10-13T09:23:16;15.57;;;11.73;;
6113;SDS011;3087;48.392;10.836;2022-10-13T09:25:40;16.45;;;12.50;;
6113;SDS011;3087;48.392;10.836;2022-10-13T09:28:21;17.75;;;13.48;;
6113;SDS011;3087;48.392;10.836;2022-10-13T09:30:59;18.58;;;12.95;;
6113;SDS011;3087;48.392;10.836;2022-10-13T09:33:38;17.63;;;14.00;;
6113;SDS011;3087;48.392;10.836;2022-10-13T09:36:05;19.10;;;13.70;;
6113;SDS011;3087;48.392;10.836;2022-10-13T09:38:36;17.98;;;13.43;;
6113;SDS011;3087;48.392;10.836;2022-10-13T09:46:23;18.35;;;12.13;;
6113;SDS011;3087;48.392;10.836;2022-10-13T09:48:55;24.77;;;14.10;;
6113;SDS011;3087;48.392;10.836;2022-10-13T09:54:00;19.92;;;13.93;;
6113;SDS011;3087;48.392;10.836;2022-10-13T09:59:07;26.50;;;12.38;;
6113;SDS011;3087;48.392;10.836;2022-10-13T10:01:45;21.13;;;13.00;;
6113;SDS011;3087;48.392;10.836;2022-10-13T10:04:19;19.48;;;12.20;;
6113;SDS011;3087;48.392;10.836;2022-10-13T10:06:49;16.27;;;11.18;;
6113;SDS011;3087;48.392;10.836;2022-10-13T10:09:31;16.77;;;11.10;;
6113;SDS011;3087;48.392;10.836;2022-10-13T10:12:02;16.25;;;10.65;;
6113;SDS011;3087;48.392;10.836;2022-10-13T10:14:32;14.23;;;10.07;;
6113;SDS011;3087;48.392;10.836;2022-10-13T10:22:41;16.27;;;11.00;;
6113;SDS011;3087;48.392;10.836;2022-10-13T10:25:11;19.33;;;10.88;;
6113;SDS011;3087;48.392;10.836;2022-10-13T10:28:32;15.90;;;11.07;;
6113;SDS011;3087;48.392;10.836;2022-10-13T10:30:32;15.73;;;11.10;;
6113;SDS011;3087;48.392;10.836;2022-10-13T10:33:11;14.52;;;10.38;;
6113;SDS011;3087;48.392;10.836;2022-10-13T10:41:43;17.15;;;11.40;;
6113;SDS011;3087;48.392;10.836;2022-10-13T10:44:15;14.27;;;10.00;;
6113;SDS011;3087;48.392;10.836;2022-10-13T10:46:48;12.77;;;9.45;;
6113;SDS011;3087;48.392;10.836;2022-10-13T10:49:16;16.08;;;9.88;;
6113;SDS011;3087;48.392;10.836;2022-10-13T10:51:47;17.30;;;11.30;;
6113;SDS011;3087;48.392;10.836;2022-10-13T10:57:03;15.10;;;10.43;;
6113;SDS011;3087;48.392;10.836;2022-10-13T11:06:04;14.60;;;10.60;;
6113;SDS011;3087;48.392;10.836;2022-10-13T11:08:28;13.93;;;9.40;;
6113;SDS011;3087;48.392;10.836;2022-10-13T11:13:58;12.93;;;10.43;;
6113;SDS011;3087;48.392;10.836;2022-10-13T11:17:02;18.00;;;11.25;;
6113;SDS011;3087;48.392;10.836;2022-10-13T11:19:35;12.80;;;9.43;;
6113;SDS011;3087;48.392;10.836;2022-10-13T11:22:09;14.80;;;9.80;;
6113;SDS011;3087;48.392;10.836;2022-10-13T11:37:24;14.38;;;10.07;;
6113;SDS011;3087;48.392;10.836;2022-10-13T11:45:34;27.42;;;21.10;;
6113;SDS011;3087;48.392;10.836;2022-10-13T11:56:58;14.55;;;9.15;;
6113;SDS011;3087;48.392;10.836;2022-10-13T11:59:27;18.13;;;9.48;;
6113;SDS011;3087;48.392;10.836;2022-10-13T12:02:04;13.85;;;9.32;;
6113;SDS011;3087;48.392;10.836;2022-10-13T12:04:36;11.63;;;8.60;;
6113;SDS011;3087;48.392;10.836;2022-10-13T12:07:08;13.98;;;8.77;;
6113;SDS011;3087;48.392;10.836;2022-10-13T12:09:52;14.00;;;8.38;;
6113;SDS011;3087;48.392;10.836;2022-10-13T12:12:21;15.50;;;9.05;;
6113;SDS011;3087;48.392;10.836;2022-10-13T12:14:48;12.05;;;8.48;;
6113;SDS011;3087;48.392;10.836;2022-10-13T12:19:54;12.02;;;8.88;;
6113;SDS011;3087;48.392;10.836;2022-10-13T12:22:21;21.33;;;9.10;;
6113;SDS011;3087;48.392;10.836;2022-10-13T12:24:57;20.02;;;8.80;;
6113;SDS011;3087;48.392;10.836;2022-10-13T12:27:24;21.70;;;9.13;;
6113;SDS011;3087;48.392;10.836;2022-10-13T12:29:51;15.95;;;8.05;;
6113;SDS011;3087;48.392;10.836;2022-10-13T12:32:35;16.02;;;8.55;;
6113;SDS011;3087;48.392;10.836;2022-10-13T12:35:17;14.80;;;8.68;;
6113;SDS011;3087;48.392;10.836;2022-10-13T12:37:44;15.63;;;9.25;;
6113;SDS011;3087;48.392;10.836;2022-10-13T12:40:13;12.38;;;8.43;;
6113;SDS011;3087;48.392;10.836;2022-10-13T12:42:41;15.15;;;9.13;;
6113;SDS011;3087;48.392;10.836;2022-10-13T12:45:17;15.02;;;10.13;;
6113;SDS011;3087;48.392;10.836;2022-10-13T12:47:46;14.65;;;9.10;;
6113;SDS011;3087;48.392;10.836;2022-10-13T12:55:48;19.02;;;8.13;;
6113;SDS011;3087;48.392;10.836;2022-10-13T12:58:26;13.35;;;7.65;;
6113;SDS011;3087;48.392;10.836;2022-10-13T13:01:20;10.80;;;7.53;;
6113;SDS011;3087;48.392;10.836;2022-10-13T13:03:57;13.48;;;8.52;;
6113;SDS011;3087;48.392;10.836;2022-10-13T13:06:40;14.13;;;9.35;;
6113;SDS011;3087;48.392;10.836;2022-10-13T13:09:22;13.93;;;8.10;;
6113;SDS011;3087;48.392;10.836;2022-10-13T13:14:50;15.82;;;7.72;;
6113;SDS011;3087;48.392;10.836;2022-10-13T13:19:48;11.45;;;7.35;;
6113;SDS011;3087;48.392;10.836;2022-10-13T13:22:15;15.27;;;8.13;;
6113;SDS011;3087;48.392;10.836;2022-10-13T13:24:41;12.13;;;7.32;;
6113;SDS011;3087;48.392;10.836;2022-10-13T13:27:13;9.38;;;7.07;;
6113;SDS011;3087;48.392;10.836;2022-10-13T13:29:43;13.23;;;7.80;;
6113;SDS011;3087;48.392;10.836;2022-10-13T13:32:12;16.40;;;7.50;;
6113;SDS011;3087;48.392;10.836;2022-10-13T13:34:42;10.82;;;7.68;;
6113;SDS011;3087;48.392;10.836;2022-10-13T13:37:10;10.95;;;6.90;;
6113;SDS011;3087;48.392;10.836;2022-10-13T13:39:38;12.07;;;8.15;;
6113;SDS011;3087;48.392;10.836;2022-10-13T13:42:04;13.38;;;7.88;;
6113;SDS011;3087;48.392;10.836;2022-10-13T13:44:29;11.55;;;7.75;;
6113;SDS011;3087;48.392;10.836;2022-10-13T13:46:55;9.80;;;7.10;;
6113;SDS011;3087;48.392;10.836;2022-10-13T13:49:20;11.20;;;7.30;;
6113;SDS011;3087;48.392;10.836;2022-10-13T13:51:46;11.60;;;8.45;;
6113;SDS011;3087;48.392;10.836;2022-10-13T13:54:12;12.50;;;8.13;;
6113;SDS011;3087;48.392;10.836;2022-10-13T13:56:37;12.38;;;7.63;;
6113;SDS011;3087;48.392;10.836;2022-10-13T13:59:03;13.52;;;8.48;;
6113;SDS011;3087;48.392;10.836;2022-10-13T14:01:28;11.07;;;6.78;;
6113;SDS011;3087;48.392;10.836;2022-10-13T14:03:56;10.25;;;7.07;;
6113;SDS011;3087;48.392;10.836;2022-10-13T14:06:21;11.73;;;6.63;;
6113;SDS011;3087;48.392;10.836;2022-10-13T14:08:47;10.20;;;7.03;;
6113;SDS011;3087;48.392;10.836;2022-10-13T14:11:14;13.60;;;7.40;;
6113;SDS011;3087;48.392;10.836;2022-10-13T14:13:39;13.05;;;8.98;;
6113;SDS011;3087;48.392;10.836;2022-10-13T14:16:05;11.75;;;7.78;;
6113;SDS011;3087;48.392;10.836;2022-10-13T14:18:31;12.43;;;8.88;;
6113;SDS011;3087;48.392;10.836;2022-10-13T14:20:56;11.27;;;7.85;;
6113;SDS011;3087;48.392;10.836;2022-10-13T14:23:22;13.23;;;8.02;;
6113;SDS011;3087;48.392;10.836;2022-10-13T14:25:47;11.73;;;7.90;;
6113;SDS011;3087;48.392;10.836;2022-10-13T14:28:13;10.07;;;7.53;;
6113;SDS011;3087;48.392;10.836;2022-10-13T14:30:39;16.90;;;8.50;;
6113;SDS011;3087;48.392;10.836;2022-10-13T14:33:05;10.27;;;7.95;;
6113;SDS011;3087;48.392;10.836;2022-10-13T14:35:31;15.93;;;7.80;;
6113;SDS011;3087;48.392;10.836;2022-10-13T14:37:57;14.27;;;8.13;;
6113;SDS011;3087;48.392;10.836;2022-10-13T14:40:23;11.80;;;7.53;;
6113;SDS011;3087;48.392;10.836;2022-10-13T14:42:48;14.88;;;8.38;;
6113;SDS011;3087;48.392;10.836;2022-10-13T14:45:14;14.70;;;8.35;;
6113;SDS011;3087;48.392;10.836;2022-10-13T14:47:40;9.20;;;7.28;;
6113;SDS011;3087;48.392;10.836;2022-10-13T14:50:06;12.02;;;6.97;;
6113;SDS011;3087;48.392;10.836;2022-10-13T14:52:32;16.40;;;8.27;;
6113;SDS011;3087;48.392;10.836;2022-10-13T14:54:58;12.23;;;7.53;;
6113;SDS011;3087;48.392;10.836;2022-10-13T14:57:24;13.57;;;7.05;;
6113;SDS011;3087;48.392;10.836;2022-10-13T14:59:49;11.75;;;7.22;;
6113;SDS011;3087;48.392;10.836;2022-10-13T15:02:15;14.10;;;7.75;;
6113;SDS011;3087;48.392;10.836;2022-10-13T15:04:41;16.88;;;8.27;;
6113;SDS011;3087;48.392;10.836;2022-10-13T15:07:06;11.60;;;8.95;;
6113;SDS011;3087;48.392;10.836;2022-10-13T15:09:32;11.45;;;9.18;;
6113;SDS011;3087;48.392;10.836;2022-10-13T15:11:58;13.10;;;8.45;;
6113;SDS011;3087;48.392;10.836;2022-10-13T15:14:24;14.13;;;7.90;;
6113;SDS011;3087;48.392;10.836;2022-10-13T15:16:49;12.27;;;8.40;;
6113;SDS011;3087;48.392;10.836;2022-10-13T15:19:15;12.32;;;8.18;;
6113;SDS011;3087;48.392;10.836;2022-10-13T15:21:41;13.50;;;9.23;;
6113;SDS011;3087;48.392;10.836;2022-10-13T15:24:08;16.05;;;8.60;;
6113;SDS011;3087;48.392;10.836;2022-10-13T15:26:34;14.57;;;9.02;;
6113;SDS011;3087;48.392;10.836;2022-10-13T15:29:00;22.10;;;9.35;;
6113;SDS011;3087;48.392;10.836;2022-10-13T15:31:27;13.20;;;9.18;;
6113;SDS011;3087;48.392;10.836;2022-10-13T15:33:55;12.65;;;9.27;;
6113;SDS011;3087;48.392;10.836;2022-10-13T15:36:21;10.30;;;8.75;;
6113;SDS011;3087;48.392;10.836;2022-10-13T15:38:47;15.18;;;9.52;;
6113;SDS011;3087;48.392;10.836;2022-10-13T15:41:13;12.55;;;8.90;;
6113;SDS011;3087;48.392;10.836;2022-10-13T15:43:39;12.40;;;8.35;;
6113;SDS011;3087;48.392;10.836;2022-10-13T15:46:14;13.27;;;9.00;;
6113;SDS011;3087;48.392;10.836;2022-10-13T15:48:49;11.45;;;8.18;;
6113;SDS011;3087;48.392;10.836;2022-10-13T15:51:16;13.98;;;9.15;;
6113;SDS011;3087;48.392;10.836;2022-10-13T15:53:43;13.30;;;8.45;;
6113;SDS011;3087;48.392;10.836;2022-10-13T15:56:10;14.48;;;8.90;;
6113;SDS011;3087;48.392;10.836;2022-10-13T15:58:36;11.55;;;8.70;;
6113;SDS011;3087;48.392;10.836;2022-10-13T16:01:11;13.40;;;8.70;;
6113;SDS011;3087;48.392;10.836;2022-10-13T16:03:38;12.68;;;7.93;;
6113;SDS011;3087;48.392;10.836;2022-10-13T16:06:05;11.77;;;8.52;;
6113;SDS011;3087;48.392;10.836;2022-10-13T16:08:34;12.82;;;8.95;;
6113;SDS011;3087;48.392;10.836;2022-10-13T16:11:00;13.38;;;8.35;;
6113;SDS011;3087;48.392;10.836;2022-10-13T16:13:31;12.13;;;8.90;;
6113;SDS011;3087;48.392;10.836;2022-10-13T16:15:58;13.23;;;9.00;;
6113;SDS011;3087;48.392;10.836;2022-10-13T16:18:28;14.13;;;9.20;;
6113;SDS011;3087;48.392;10.836;2022-10-13T16:20:55;14.98;;;9.75;;
6113;SDS011;3087;48.392;10.836;2022-10-13T16:23:20;14.48;;;9.20;;
6113;SDS011;3087;48.392;10.836;2022-10-13T16:25:46;10.57;;;8.45;;
6113;SDS011;3087;48.392;10.836;2022-10-13T16:28:12;11.85;;;9.02;;
6113;SDS011;3087;48.392;10.836;2022-10-13T16:30:39;13.95;;;8.93;;
6113;SDS011;3087;48.392;10.836;2022-10-13T16:33:05;11.25;;;9.05;;
6113;SDS011;3087;48.392;10.836;2022-10-13T16:35:30;14.98;;;8.95;;
6113;SDS011;3087;48.392;10.836;2022-10-13T16:37:58;14.10;;;9.68;;